sensor_id;sensor_type;location;lat;lon;timestamp;P1;durP1;ratioP1;P2;durP2;ratioP2
37455;SDS011;23316;50.718;7.328;2022-12-18T00:02:23;44.78;;;18.25;;
37455;SDS011;23316;50.718;7.328;2022-12-18T00:04:51;46.75;;;18.40;;
37455;SDS011;23316;50.718;7.328;2022-12-18T00:07:18;41.42;;;17.13;;
37455;SDS011;23316;50.718;7.328;2022-12-18T00:09:45;43.67;;;17.00;;
37455;SDS011;23316;50.718;7.328;2022-12-18T00:12:12;44.97;;;18.65;;
37455;SDS011;23316;50.718;7.328;2022-12-18T00:14:40;47.17;;;19.13;;
37455;SDS011;23316;50.718;7.328;2022-12-18T00:17:08;44.28;;;18.92;;
37455;SDS011;23316;50.718;7.328;2022-12-18T00:19:35;46.35;;;18.83;;
37455;SDS011;23316;50.718;7.328;2022-12-18T00:22:03;42.78;;;17.35;;
37455;SDS011;23316;50.718;7.328;2022-12-18T00:24:31;45.58;;;17.70;;
37455;SDS011;23316;50.718;7.328;2022-12-18T00:26:58;43.75;;;18.45;;
37455;SDS011;23316;50.718;7.328;2022-12-18T00:29:26;38.50;;;16.92;;
37455;SDS011;23316;50.718;7.328;2022-12-18T00:31:53;43.38;;;17.85;;
37455;SDS011;23316;50.718;7.328;2022-12-18T00:34:22;40.88;;;17.65;;
37455;SDS011;23316;50.718;7.328;2022-12-18T00:36:49;46.42;;;18.52;;
37455;SDS011;23316;50.718;7.328;2022-12-18T00:39:16;40.92;;;17.38;;
37455;SDS011;23316;50.718;7.328;2022-12-18T00:41:44;44.22;;;17.17;;
37455;SDS011;23316;50.718;7.328;2022-12-18T00:44:28;43.15;;;17.13;;
37455;SDS011;23316;50.718;7.328;2022-12-18T00:46:56;40.53;;;17.48;;
37455;SDS011;23316;50.718;7.328;2022-12-18T00:49:24;44.28;;;17.98;;
37455;SDS011;23316;50.718;7.328;2022-12-18T00:51:52;39.60;;;17.27;;
37455;SDS011;23316;50.718;7.328;2022-12-18T00:54:19;48.53;;;17.52;;
37455;SDS011;23316;50.718;7.328;2022-12-18T00:56:47;37.28;;;16.35;;
37455;SDS011;23316;50.718;7.328;2022-12-18T00:59:14;42.42;;;18.30;;
37455;SDS011;23316;50.718;7.328;2022-12-18T01:01:41;41.28;;;15.38;;
37455;SDS011;23316;50.718;7.328;2022-12-18T01:04:09;41.97;;;17.23;;
37455;SDS011;23316;50.718;7.328;2022-12-18T01:06:38;42.33;;;17.48;;
37455;SDS011;23316;50.718;7.328;2022-12-18T01:09:06;48.28;;;17.40;;
37455;SDS011;23316;50.718;7.328;2022-12-18T01:11:34;34.78;;;15.43;;
37455;SDS011;23316;50.718;7.328;2022-12-18T01:14:01;38.05;;;16.25;;
37455;SDS011;23316;50.718;7.328;2022-12-18T01:16:28;39.15;;;17.10;;
37455;SDS011;23316;50.718;7.328;2022-12-18T01:18:56;40.88;;;16.98;;
37455;SDS011;23316;50.718;7.328;2022-12-18T01:21:23;42.60;;;17.88;;
37455;SDS011;23316;50.718;7.328;2022-12-18T01:23:53;41.00;;;17.50;;
37455;SDS011;23316;50.718;7.328;2022-12-18T01:26:21;35.40;;;15.88;;
37455;SDS011;23316;50.718;7.328;2022-12-18T01:28:49;38.28;;;16.20;;
37455;SDS011;23316;50.718;7.328;2022-12-18T01:31:17;41.95;;;16.73;;
37455;SDS011;23316;50.718;7.328;2022-12-18T01:33:46;35.78;;;16.48;;
37455;SDS011;23316;50.718;7.328;2022-12-18T01:36:18;40.53;;;16.85;;
37455;SDS011;23316;50.718;7.328;2022-12-18T01:38:47;43.67;;;18.15;;
37455;SDS011;23316;50.718;7.328;2022-12-18T01:41:17;40.97;;;17.23;;
37455;SDS011;23316;50.718;7.328;2022-12-18T01:43:48;39.92;;;16.73;;
37455;SDS011;23316;50.718;7.328;2022-12-18T01:46:18;40.35;;;16.92;;
37455;SDS011;23316;50.718;7.328;2022-12-18T01:48:49;40.95;;;18.38;;
37455;SDS011;23316;50.718;7.328;2022-12-18T01:51:19;38.10;;;16.88;;
37455;SDS011;23316;50.718;7.328;2022-12-18T01:53:46;33.45;;;15.57;;
37455;SDS011;23316;50.718;7.328;2022-12-18T01:56:14;34.35;;;15.48;;
37455;SDS011;23316;50.718;7.328;2022-12-18T01:58:48;38.55;;;16.10;;
37455;SDS011;23316;50.718;7.328;2022-12-18T02:01:19;36.08;;;15.73;;
37455;SDS011;23316;50.718;7.328;2022-12-18T02:03:48;38.70;;;17.02;;
37455;SDS011;23316;50.718;7.328;2022-12-18T02:06:16;34.53;;;16.00;;
37455;SDS011;23316;50.718;7.328;2022-12-18T02:11:39;30.95;;;14.45;;
37455;SDS011;23316;50.718;7.328;2022-12-18T02:14:17;38.40;;;15.40;;
37455;SDS011;23316;50.718;7.328;2022-12-18T02:16:51;40.97;;;15.07;;
37455;SDS011;23316;50.718;7.328;2022-12-18T02:19:32;41.88;;;16.50;;
37455;SDS011;23316;50.718;7.328;2022-12-18T02:24:54;33.40;;;14.15;;
37455;SDS011;23316;50.718;7.328;2022-12-18T02:27:30;35.78;;;16.00;;
37455;SDS011;23316;50.718;7.328;2022-12-18T02:30:01;39.33;;;17.05;;
37455;SDS011;23316;50.718;7.328;2022-12-18T02:32:30;42.15;;;16.13;;
37455;SDS011;23316;50.718;7.328;2022-12-18T02:35:03;36.00;;;15.35;;
37455;SDS011;23316;50.718;7.328;2022-12-18T02:37:32;36.03;;;16.02;;
37455;SDS011;23316;50.718;7.328;2022-12-18T02:40:02;34.00;;;15.25;;
37455;SDS011;23316;50.718;7.328;2022-12-18T02:42:33;33.97;;;15.65;;
37455;SDS011;23316;50.718;7.328;2022-12-18T02:45:00;36.55;;;16.27;;
37455;SDS011;23316;50.718;7.328;2022-12-18T02:47:29;38.00;;;16.50;;
37455;SDS011;23316;50.718;7.328;2022-12-18T02:50:02;38.00;;;16.25;;
37455;SDS011;23316;50.718;7.328;2022-12-18T02:52:38;37.45;;;16.17;;
37455;SDS011;23316;50.718;7.328;2022-12-18T02:55:15;36.72;;;15.88;;
37455;SDS011;23316;50.718;7.328;2022-12-18T02:57:50;34.13;;;14.77;;
37455;SDS011;23316;50.718;7.328;2022-12-18T03:00:24;40.80;;;17.38;;
37455;SDS011;23316;50.718;7.328;2022-12-18T03:02:56;32.42;;;14.88;;
37455;SDS011;23316;50.718;7.328;2022-12-18T03:05:28;35.45;;;15.27;;
37455;SDS011;23316;50.718;7.328;2022-12-18T03:08:01;37.25;;;16.40;;
37455;SDS011;23316;50.718;7.328;2022-12-18T03:10:34;34.35;;;15.50;;
37455;SDS011;23316;50.718;7.328;2022-12-18T03:13:07;39.03;;;15.93;;
37455;SDS011;23316;50.718;7.328;2022-12-18T03:15:39;33.97;;;15.02;;
37455;SDS011;23316;50.718;7.328;2022-12-18T03:18:10;38.13;;;15.63;;
37455;SDS011;23316;50.718;7.328;2022-12-18T03:20:42;34.65;;;16.02;;
37455;SDS011;23316;50.718;7.328;2022-12-18T03:23:11;36.47;;;16.10;;
37455;SDS011;23316;50.718;7.328;2022-12-18T03:25:42;32.78;;;15.45;;
37455;SDS011;23316;50.718;7.328;2022-12-18T03:28:14;37.13;;;15.65;;
37455;SDS011;23316;50.718;7.328;2022-12-18T03:30:45;42.45;;;16.48;;
37455;SDS011;23316;50.718;7.328;2022-12-18T03:33:17;33.35;;;14.60;;
37455;SDS011;23316;50.718;7.328;2022-12-18T03:35:50;36.13;;;16.05;;
37455;SDS011;23316;50.718;7.328;2022-12-18T03:38:18;46.17;;;18.55;;
37455;SDS011;23316;50.718;7.328;2022-12-18T03:40:51;35.20;;;15.98;;
37455;SDS011;23316;50.718;7.328;2022-12-18T03:43:30;39.28;;;15.90;;
37455;SDS011;23316;50.718;7.328;2022-12-18T03:46:11;35.05;;;16.30;;
37455;SDS011;23316;50.718;7.328;2022-12-18T03:48:47;40.30;;;17.52;;
37455;SDS011;23316;50.718;7.328;2022-12-18T03:51:18;38.47;;;16.35;;
37455;SDS011;23316;50.718;7.328;2022-12-18T03:53:52;46.10;;;18.33;;
37455;SDS011;23316;50.718;7.328;2022-12-18T03:56:23;41.67;;;18.33;;
37455;SDS011;23316;50.718;7.328;2022-12-18T03:58:55;39.97;;;16.52;;
37455;SDS011;23316;50.718;7.328;2022-12-18T04:01:26;39.85;;;18.05;;
37455;SDS011;23316;50.718;7.328;2022-12-18T04:03:57;41.60;;;18.05;;
37455;SDS011;23316;50.718;7.328;2022-12-18T04:06:27;46.50;;;18.48;;
37455;SDS011;23316;50.718;7.328;2022-12-18T04:08:56;37.67;;;16.67;;
37455;SDS011;23316;50.718;7.328;2022-12-18T04:11:24;38.17;;;16.10;;
37455;SDS011;23316;50.718;7.328;2022-12-18T04:13:56;38.78;;;17.88;;
37455;SDS011;23316;50.718;7.328;2022-12-18T04:16:24;42.65;;;16.50;;
37455;SDS011;23316;50.718;7.328;2022-12-18T04:18:52;36.75;;;15.68;;
37455;SDS011;23316;50.718;7.328;2022-12-18T04:21:20;39.45;;;17.55;;
37455;SDS011;23316;50.718;7.328;2022-12-18T04:23:48;37.28;;;16.20;;
37455;SDS011;23316;50.718;7.328;2022-12-18T04:26:15;37.28;;;16.20;;
37455;SDS011;23316;50.718;7.328;2022-12-18T04:28:43;39.60;;;16.55;;
37455;SDS011;23316;50.718;7.328;2022-12-18T04:31:12;40.55;;;17.20;;
37455;SDS011;23316;50.718;7.328;2022-12-18T04:33:39;39.05;;;16.77;;
37455;SDS011;23316;50.718;7.328;2022-12-18T04:36:07;42.08;;;17.83;;
37455;SDS011;23316;50.718;7.328;2022-12-18T04:38:34;43.20;;;18.95;;
37455;SDS011;23316;50.718;7.328;2022-12-18T04:41:01;36.58;;;16.92;;
37455;SDS011;23316;50.718;7.328;2022-12-18T04:43:29;40.45;;;17.73;;
37455;SDS011;23316;50.718;7.328;2022-12-18T04:46:01;41.15;;;18.02;;
37455;SDS011;23316;50.718;7.328;2022-12-18T04:48:31;45.13;;;19.13;;
37455;SDS011;23316;50.718;7.328;2022-12-18T04:50:58;38.55;;;16.92;;
37455;SDS011;23316;50.718;7.328;2022-12-18T04:53:26;40.25;;;17.52;;
37455;SDS011;23316;50.718;7.328;2022-12-18T04:56:01;36.40;;;17.48;;
37455;SDS011;23316;50.718;7.328;2022-12-18T04:58:30;39.15;;;16.92;;
37455;SDS011;23316;50.718;7.328;2022-12-18T05:00:58;41.70;;;17.30;;
37455;SDS011;23316;50.718;7.328;2022-12-18T05:03:25;43.33;;;17.98;;
37455;SDS011;23316;50.718;7.328;2022-12-18T05:05:54;38.55;;;17.67;;
37455;SDS011;23316;50.718;7.328;2022-12-18T05:08:21;45.45;;;18.73;;
37455;SDS011;23316;50.718;7.328;2022-12-18T05:10:49;42.50;;;18.42;;
37455;SDS011;23316;50.718;7.328;2022-12-18T05:13:16;43.50;;;19.48;;
37455;SDS011;23316;50.718;7.328;2022-12-18T05:15:50;38.72;;;17.70;;
37455;SDS011;23316;50.718;7.328;2022-12-18T05:18:18;36.55;;;16.40;;
37455;SDS011;23316;50.718;7.328;2022-12-18T05:20:46;37.00;;;16.60;;
37455;SDS011;23316;50.718;7.328;2022-12-18T05:23:14;42.42;;;18.35;;
37455;SDS011;23316;50.718;7.328;2022-12-18T05:25:42;48.47;;;18.85;;
37455;SDS011;23316;50.718;7.328;2022-12-18T05:28:12;40.47;;;17.73;;
37455;SDS011;23316;50.718;7.328;2022-12-18T05:30:40;35.80;;;17.38;;
37455;SDS011;23316;50.718;7.328;2022-12-18T05:33:07;39.40;;;17.90;;
37455;SDS011;23316;50.718;7.328;2022-12-18T05:35:34;40.25;;;18.10;;
37455;SDS011;23316;50.718;7.328;2022-12-18T05:38:02;47.70;;;18.92;;
37455;SDS011;23316;50.718;7.328;2022-12-18T05:40:30;45.78;;;18.70;;
37455;SDS011;23316;50.718;7.328;2022-12-18T05:42:58;38.03;;;17.90;;
37455;SDS011;23316;50.718;7.328;2022-12-18T05:45:25;39.08;;;16.85;;
37455;SDS011;23316;50.718;7.328;2022-12-18T05:47:52;42.35;;;18.33;;
37455;SDS011;23316;50.718;7.328;2022-12-18T05:50:19;44.53;;;18.13;;
37455;SDS011;23316;50.718;7.328;2022-12-18T05:52:47;39.53;;;17.27;;
37455;SDS011;23316;50.718;7.328;2022-12-18T05:55:14;36.60;;;16.08;;
37455;SDS011;23316;50.718;7.328;2022-12-18T05:57:43;36.88;;;16.63;;
37455;SDS011;23316;50.718;7.328;2022-12-18T06:00:10;40.15;;;17.33;;
37455;SDS011;23316;50.718;7.328;2022-12-18T06:02:38;45.45;;;18.17;;
37455;SDS011;23316;50.718;7.328;2022-12-18T06:05:06;35.88;;;16.70;;
37455;SDS011;23316;50.718;7.328;2022-12-18T06:07:34;38.38;;;16.75;;
37455;SDS011;23316;50.718;7.328;2022-12-18T06:10:01;39.20;;;16.20;;
37455;SDS011;23316;50.718;7.328;2022-12-18T06:12:29;36.45;;;16.42;;
37455;SDS011;23316;50.718;7.328;2022-12-18T06:14:58;40.10;;;17.27;;
37455;SDS011;23316;50.718;7.328;2022-12-18T06:17:27;42.70;;;17.92;;
37455;SDS011;23316;50.718;7.328;2022-12-18T06:19:55;37.42;;;17.38;;
37455;SDS011;23316;50.718;7.328;2022-12-18T06:22:22;39.58;;;17.48;;
37455;SDS011;23316;50.718;7.328;2022-12-18T06:24:49;42.75;;;17.65;;
37455;SDS011;23316;50.718;7.328;2022-12-18T06:27:17;38.60;;;17.35;;
37455;SDS011;23316;50.718;7.328;2022-12-18T06:29:44;43.03;;;17.83;;
37455;SDS011;23316;50.718;7.328;2022-12-18T06:32:14;39.72;;;16.92;;
37455;SDS011;23316;50.718;7.328;2022-12-18T06:34:42;38.38;;;16.52;;
37455;SDS011;23316;50.718;7.328;2022-12-18T06:37:09;38.45;;;16.35;;
37455;SDS011;23316;50.718;7.328;2022-12-18T06:39:36;37.30;;;16.17;;
37455;SDS011;23316;50.718;7.328;2022-12-18T06:42:04;38.88;;;17.77;;
37455;SDS011;23316;50.718;7.328;2022-12-18T06:44:31;45.17;;;18.20;;
37455;SDS011;23316;50.718;7.328;2022-12-18T06:46:59;33.70;;;15.73;;
37455;SDS011;23316;50.718;7.328;2022-12-18T06:49:28;51.20;;;21.45;;
37455;SDS011;23316;50.718;7.328;2022-12-18T06:51:55;40.10;;;19.17;;
37455;SDS011;23316;50.718;7.328;2022-12-18T06:54:22;38.50;;;17.15;;
37455;SDS011;23316;50.718;7.328;2022-12-18T06:56:50;40.70;;;16.77;;
37455;SDS011;23316;50.718;7.328;2022-12-18T06:59:17;38.33;;;16.13;;
37455;SDS011;23316;50.718;7.328;2022-12-18T07:01:44;41.75;;;17.83;;
37455;SDS011;23316;50.718;7.328;2022-12-18T07:04:12;38.72;;;16.45;;
37455;SDS011;23316;50.718;7.328;2022-12-18T07:06:41;42.50;;;18.90;;
37455;SDS011;23316;50.718;7.328;2022-12-18T07:09:08;49.50;;;18.55;;
37455;SDS011;23316;50.718;7.328;2022-12-18T07:11:35;37.88;;;15.95;;
37455;SDS011;23316;50.718;7.328;2022-12-18T07:14:03;45.25;;;17.45;;
37455;SDS011;23316;50.718;7.328;2022-12-18T07:16:30;36.05;;;16.90;;
37455;SDS011;23316;50.718;7.328;2022-12-18T07:18:57;45.25;;;18.25;;
37455;SDS011;23316;50.718;7.328;2022-12-18T07:21:25;37.70;;;16.73;;
37455;SDS011;23316;50.718;7.328;2022-12-18T07:23:54;36.90;;;16.60;;
37455;SDS011;23316;50.718;7.328;2022-12-18T07:26:21;37.25;;;16.38;;
37455;SDS011;23316;50.718;7.328;2022-12-18T07:28:49;73.95;;;27.33;;
37455;SDS011;23316;50.718;7.328;2022-12-18T07:31:17;64.53;;;25.15;;
37455;SDS011;23316;50.718;7.328;2022-12-18T07:33:46;44.65;;;18.77;;
37455;SDS011;23316;50.718;7.328;2022-12-18T07:36:13;40.72;;;18.15;;
37455;SDS011;23316;50.718;7.328;2022-12-18T07:38:41;36.72;;;16.15;;
37455;SDS011;23316;50.718;7.328;2022-12-18T07:41:10;37.22;;;16.25;;
37455;SDS011;23316;50.718;7.328;2022-12-18T07:43:40;34.50;;;15.55;;
37455;SDS011;23316;50.718;7.328;2022-12-18T07:46:08;37.47;;;16.52;;
37455;SDS011;23316;50.718;7.328;2022-12-18T07:48:36;41.15;;;18.30;;
37455;SDS011;23316;50.718;7.328;2022-12-18T07:51:04;43.75;;;18.25;;
37455;SDS011;23316;50.718;7.328;2022-12-18T07:53:33;43.85;;;18.88;;
37455;SDS011;23316;50.718;7.328;2022-12-18T07:56:03;39.95;;;18.08;;
37455;SDS011;23316;50.718;7.328;2022-12-18T07:58:34;44.17;;;19.05;;
37455;SDS011;23316;50.718;7.328;2022-12-18T08:01:02;40.85;;;17.83;;
37455;SDS011;23316;50.718;7.328;2022-12-18T08:03:30;37.95;;;16.98;;
37455;SDS011;23316;50.718;7.328;2022-12-18T08:05:59;41.97;;;17.98;;
37455;SDS011;23316;50.718;7.328;2022-12-18T08:08:27;36.85;;;16.45;;
37455;SDS011;23316;50.718;7.328;2022-12-18T08:10:54;38.50;;;17.40;;
37455;SDS011;23316;50.718;7.328;2022-12-18T08:13:22;36.95;;;16.08;;
37455;SDS011;23316;50.718;7.328;2022-12-18T08:15:56;37.72;;;16.85;;
37455;SDS011;23316;50.718;7.328;2022-12-18T08:18:24;37.72;;;16.27;;
37455;SDS011;23316;50.718;7.328;2022-12-18T08:20:51;38.22;;;16.40;;
37455;SDS011;23316;50.718;7.328;2022-12-18T08:23:19;39.00;;;17.00;;
37455;SDS011;23316;50.718;7.328;2022-12-18T08:25:46;38.58;;;16.70;;
37455;SDS011;23316;50.718;7.328;2022-12-18T08:28:14;41.28;;;17.60;;
37455;SDS011;23316;50.718;7.328;2022-12-18T08:30:41;43.72;;;17.05;;
37455;SDS011;23316;50.718;7.328;2022-12-18T08:33:10;40.95;;;17.65;;
37455;SDS011;23316;50.718;7.328;2022-12-18T08:35:37;43.03;;;17.88;;
37455;SDS011;23316;50.718;7.328;2022-12-18T08:38:04;40.85;;;16.75;;
37455;SDS011;23316;50.718;7.328;2022-12-18T08:40:32;37.50;;;14.80;;
37455;SDS011;23316;50.718;7.328;2022-12-18T08:42:59;37.95;;;15.98;;
37455;SDS011;23316;50.718;7.328;2022-12-18T08:45:44;38.08;;;15.95;;
37455;SDS011;23316;50.718;7.328;2022-12-18T08:48:13;36.15;;;15.07;;
37455;SDS011;23316;50.718;7.328;2022-12-18T08:50:40;36.50;;;15.60;;
37455;SDS011;23316;50.718;7.328;2022-12-18T08:53:08;43.78;;;17.95;;
37455;SDS011;23316;50.718;7.328;2022-12-18T08:55:35;42.20;;;17.60;;
37455;SDS011;23316;50.718;7.328;2022-12-18T08:58:02;37.05;;;17.33;;
37455;SDS011;23316;50.718;7.328;2022-12-18T09:00:30;36.17;;;16.13;;
37455;SDS011;23316;50.718;7.328;2022-12-18T09:02:57;35.72;;;16.38;;
37455;SDS011;23316;50.718;7.328;2022-12-18T09:05:26;37.20;;;16.08;;
37455;SDS011;23316;50.718;7.328;2022-12-18T09:07:53;37.00;;;16.23;;
37455;SDS011;23316;50.718;7.328;2022-12-18T09:10:21;35.25;;;15.80;;
37455;SDS011;23316;50.718;7.328;2022-12-18T09:12:48;35.60;;;16.42;;
37455;SDS011;23316;50.718;7.328;2022-12-18T09:15:16;41.40;;;18.08;;
37455;SDS011;23316;50.718;7.328;2022-12-18T09:17:43;34.08;;;16.77;;
37455;SDS011;23316;50.718;7.328;2022-12-18T09:20:10;39.70;;;16.05;;
37455;SDS011;23316;50.718;7.328;2022-12-18T09:22:39;32.30;;;15.27;;
37455;SDS011;23316;50.718;7.328;2022-12-18T09:25:06;35.60;;;16.13;;
37455;SDS011;23316;50.718;7.328;2022-12-18T09:27:34;34.63;;;16.20;;
37455;SDS011;23316;50.718;7.328;2022-12-18T09:30:02;37.65;;;16.35;;
37455;SDS011;23316;50.718;7.328;2022-12-18T09:32:30;31.10;;;15.27;;
37455;SDS011;23316;50.718;7.328;2022-12-18T09:34:57;37.00;;;16.58;;
37455;SDS011;23316;50.718;7.328;2022-12-18T09:37:25;33.45;;;15.73;;
37455;SDS011;23316;50.718;7.328;2022-12-18T09:39:54;38.55;;;16.95;;
37455;SDS011;23316;50.718;7.328;2022-12-18T09:42:23;40.30;;;17.67;;
37455;SDS011;23316;50.718;7.328;2022-12-18T09:44:51;38.38;;;16.55;;
37455;SDS011;23316;50.718;7.328;2022-12-18T09:47:21;35.60;;;17.42;;
37455;SDS011;23316;50.718;7.328;2022-12-18T09:49:52;33.22;;;15.95;;
37455;SDS011;23316;50.718;7.328;2022-12-18T09:52:26;36.15;;;16.52;;
37455;SDS011;23316;50.718;7.328;2022-12-18T09:54:58;39.65;;;17.40;;
37455;SDS011;23316;50.718;7.328;2022-12-18T09:57:31;38.78;;;16.52;;
37455;SDS011;23316;50.718;7.328;2022-12-18T10:00:04;37.78;;;16.23;;
37455;SDS011;23316;50.718;7.328;2022-12-18T10:02:44;31.40;;;15.60;;
37455;SDS011;23316;50.718;7.328;2022-12-18T10:05:13;36.72;;;17.00;;
37455;SDS011;23316;50.718;7.328;2022-12-18T10:07:47;36.95;;;16.60;;
37455;SDS011;23316;50.718;7.328;2022-12-18T10:10:29;48.58;;;22.17;;
37455;SDS011;23316;50.718;7.328;2022-12-18T10:13:07;41.35;;;18.77;;
37455;SDS011;23316;50.718;7.328;2022-12-18T10:15:44;37.70;;;17.33;;
37455;SDS011;23316;50.718;7.328;2022-12-18T10:18:22;71.35;;;27.85;;
37455;SDS011;23316;50.718;7.328;2022-12-18T10:21:00;42.00;;;17.80;;
37455;SDS011;23316;50.718;7.328;2022-12-18T10:23:32;32.35;;;16.27;;
37455;SDS011;23316;50.718;7.328;2022-12-18T10:26:08;33.85;;;16.27;;
37455;SDS011;23316;50.718;7.328;2022-12-18T10:28:37;41.17;;;17.98;;
37455;SDS011;23316;50.718;7.328;2022-12-18T10:31:06;33.17;;;15.77;;
37455;SDS011;23316;50.718;7.328;2022-12-18T10:33:39;38.33;;;16.27;;
37455;SDS011;23316;50.718;7.328;2022-12-18T10:36:07;35.13;;;16.40;;
37455;SDS011;23316;50.718;7.328;2022-12-18T10:38:34;36.10;;;16.35;;
37455;SDS011;23316;50.718;7.328;2022-12-18T10:41:02;40.53;;;20.23;;
37455;SDS011;23316;50.718;7.328;2022-12-18T10:43:33;34.50;;;17.15;;
37455;SDS011;23316;50.718;7.328;2022-12-18T10:46:08;37.08;;;17.85;;
37455;SDS011;23316;50.718;7.328;2022-12-18T10:48:47;37.85;;;16.00;;
37455;SDS011;23316;50.718;7.328;2022-12-18T10:51:19;36.50;;;17.05;;
37455;SDS011;23316;50.718;7.328;2022-12-18T10:53:54;35.50;;;15.93;;
37455;SDS011;23316;50.718;7.328;2022-12-18T10:58:57;39.80;;;17.25;;
37455;SDS011;23316;50.718;7.328;2022-12-18T11:01:26;38.92;;;17.55;;
37455;SDS011;23316;50.718;7.328;2022-12-18T11:04:04;32.83;;;16.25;;
37455;SDS011;23316;50.718;7.328;2022-12-18T11:06:35;40.13;;;18.02;;
37455;SDS011;23316;50.718;7.328;2022-12-18T11:09:20;35.83;;;17.98;;
37455;SDS011;23316;50.718;7.328;2022-12-18T11:11:49;39.42;;;16.95;;
37455;SDS011;23316;50.718;7.328;2022-12-18T11:14:20;35.92;;;16.75;;
37455;SDS011;23316;50.718;7.328;2022-12-18T11:16:49;34.38;;;15.57;;
37455;SDS011;23316;50.718;7.328;2022-12-18T11:19:23;35.28;;;16.80;;
37455;SDS011;23316;50.718;7.328;2022-12-18T11:21:56;32.60;;;16.25;;
37455;SDS011;23316;50.718;7.328;2022-12-18T11:24:27;38.03;;;17.83;;
37455;SDS011;23316;50.718;7.328;2022-12-18T11:26:57;37.45;;;18.38;;
37455;SDS011;23316;50.718;7.328;2022-12-18T11:29:35;32.97;;;16.05;;
37455;SDS011;23316;50.718;7.328;2022-12-18T11:35:11;33.95;;;16.60;;
37455;SDS011;23316;50.718;7.328;2022-12-18T11:37:45;40.97;;;17.38;;
37455;SDS011;23316;50.718;7.328;2022-12-18T11:40:17;53.57;;;21.83;;
37455;SDS011;23316;50.718;7.328;2022-12-18T11:42:50;54.67;;;23.17;;
37455;SDS011;23316;50.718;7.328;2022-12-18T11:45:33;41.50;;;18.63;;
37455;SDS011;23316;50.718;7.328;2022-12-18T11:48:05;40.80;;;18.13;;
37455;SDS011;23316;50.718;7.328;2022-12-18T11:50:45;38.10;;;17.83;;
37455;SDS011;23316;50.718;7.328;2022-12-18T11:53:16;39.20;;;17.98;;
37455;SDS011;23316;50.718;7.328;2022-12-18T11:55:47;36.88;;;17.90;;
37455;SDS011;23316;50.718;7.328;2022-12-18T11:58:28;36.72;;;17.27;;
37455;SDS011;23316;50.718;7.328;2022-12-18T12:01:13;36.72;;;18.02;;
37455;SDS011;23316;50.718;7.328;2022-12-18T12:04:02;37.55;;;18.35;;
37455;SDS011;23316;50.718;7.328;2022-12-18T12:06:48;39.20;;;17.98;;
37455;SDS011;23316;50.718;7.328;2022-12-18T12:09:22;36.00;;;17.15;;
37455;SDS011;23316;50.718;7.328;2022-12-18T12:12:01;42.75;;;17.42;;
37455;SDS011;23316;50.718;7.328;2022-12-18T12:14:43;39.65;;;17.70;;
37455;SDS011;23316;50.718;7.328;2022-12-18T12:17:19;37.78;;;18.27;;
37455;SDS011;23316;50.718;7.328;2022-12-18T12:19:56;38.80;;;18.88;;
37455;SDS011;23316;50.718;7.328;2022-12-18T12:22:35;35.92;;;17.45;;
37455;SDS011;23316;50.718;7.328;2022-12-18T12:25:18;41.33;;;18.77;;
37455;SDS011;23316;50.718;7.328;2022-12-18T12:27:57;42.33;;;18.63;;
37455;SDS011;23316;50.718;7.328;2022-12-18T12:30:35;41.65;;;19.30;;
37455;SDS011;23316;50.718;7.328;2022-12-18T12:33:14;39.75;;;19.45;;
37455;SDS011;23316;50.718;7.328;2022-12-18T12:35:51;39.63;;;19.77;;
37455;SDS011;23316;50.718;7.328;2022-12-18T12:38:24;44.72;;;19.92;;
37455;SDS011;23316;50.718;7.328;2022-12-18T12:40:56;45.00;;;20.55;;
37455;SDS011;23316;50.718;7.328;2022-12-18T12:43:28;39.22;;;18.48;;
37455;SDS011;23316;50.718;7.328;2022-12-18T12:46:03;46.95;;;20.73;;
37455;SDS011;23316;50.718;7.328;2022-12-18T12:48:34;47.03;;;22.38;;
37455;SDS011;23316;50.718;7.328;2022-12-18T12:51:08;42.35;;;19.40;;
37455;SDS011;23316;50.718;7.328;2022-12-18T12:53:40;41.90;;;20.33;;
37455;SDS011;23316;50.718;7.328;2022-12-18T12:56:08;39.38;;;20.15;;
37455;SDS011;23316;50.718;7.328;2022-12-18T12:58:40;41.00;;;18.70;;
37455;SDS011;23316;50.718;7.328;2022-12-18T13:01:17;44.75;;;20.65;;
37455;SDS011;23316;50.718;7.328;2022-12-18T13:03:55;46.47;;;21.05;;
37455;SDS011;23316;50.718;7.328;2022-12-18T13:06:32;52.17;;;22.70;;
37455;SDS011;23316;50.718;7.328;2022-12-18T13:09:04;45.03;;;20.00;;
37455;SDS011;23316;50.718;7.328;2022-12-18T13:11:35;47.53;;;21.38;;
37455;SDS011;23316;50.718;7.328;2022-12-18T13:14:22;43.65;;;21.20;;
37455;SDS011;23316;50.718;7.328;2022-12-18T13:16:52;40.40;;;19.48;;
37455;SDS011;23316;50.718;7.328;2022-12-18T13:20:05;40.72;;;19.02;;
37455;SDS011;23316;50.718;7.328;2022-12-18T13:22:36;39.22;;;18.67;;
37455;SDS011;23316;50.718;7.328;2022-12-18T13:28:07;46.05;;;21.70;;
37455;SDS011;23316;50.718;7.328;2022-12-18T13:30:47;41.95;;;19.88;;
37455;SDS011;23316;50.718;7.328;2022-12-18T13:33:30;44.65;;;20.17;;
37455;SDS011;23316;50.718;7.328;2022-12-18T13:36:12;44.40;;;21.05;;
37455;SDS011;23316;50.718;7.328;2022-12-18T13:45:40;46.45;;;20.85;;
37455;SDS011;23316;50.718;7.328;2022-12-18T13:48:20;42.13;;;20.05;;
37455;SDS011;23316;50.718;7.328;2022-12-18T13:50:52;42.72;;;19.15;;
37455;SDS011;23316;50.718;7.328;2022-12-18T13:53:26;42.17;;;19.83;;
37455;SDS011;23316;50.718;7.328;2022-12-18T13:55:56;41.23;;;20.27;;
37455;SDS011;23316;50.718;7.328;2022-12-18T13:58:23;43.40;;;19.98;;
37455;SDS011;23316;50.718;7.328;2022-12-18T14:00:51;41.95;;;21.00;;
37455;SDS011;23316;50.718;7.328;2022-12-18T14:03:19;43.80;;;20.52;;
37455;SDS011;23316;50.718;7.328;2022-12-18T14:05:52;38.97;;;19.08;;
37455;SDS011;23316;50.718;7.328;2022-12-18T14:08:21;41.70;;;21.83;;
37455;SDS011;23316;50.718;7.328;2022-12-18T14:10:53;46.33;;;21.63;;
37455;SDS011;23316;50.718;7.328;2022-12-18T14:13:24;52.05;;;24.10;;
37455;SDS011;23316;50.718;7.328;2022-12-18T14:15:54;50.83;;;23.45;;
37455;SDS011;23316;50.718;7.328;2022-12-18T14:18:23;49.45;;;23.73;;
37455;SDS011;23316;50.718;7.328;2022-12-18T14:20:53;46.40;;;22.42;;
37455;SDS011;23316;50.718;7.328;2022-12-18T14:23:28;49.90;;;21.95;;
37455;SDS011;23316;50.718;7.328;2022-12-18T14:25:57;45.60;;;22.27;;
37455;SDS011;23316;50.718;7.328;2022-12-18T14:28:25;50.05;;;22.48;;
37455;SDS011;23316;50.718;7.328;2022-12-18T14:30:53;47.40;;;22.67;;
37455;SDS011;23316;50.718;7.328;2022-12-18T14:33:22;60.05;;;26.27;;
37455;SDS011;23316;50.718;7.328;2022-12-18T14:35:57;56.50;;;25.23;;
37455;SDS011;23316;50.718;7.328;2022-12-18T14:38:31;52.42;;;23.73;;
37455;SDS011;23316;50.718;7.328;2022-12-18T14:41:01;49.38;;;23.20;;
37455;SDS011;23316;50.718;7.328;2022-12-18T14:43:31;47.40;;;22.70;;
37455;SDS011;23316;50.718;7.328;2022-12-18T14:46:00;48.35;;;22.95;;
37455;SDS011;23316;50.718;7.328;2022-12-18T14:48:34;51.67;;;24.17;;
37455;SDS011;23316;50.718;7.328;2022-12-18T14:51:05;52.55;;;23.90;;
37455;SDS011;23316;50.718;7.328;2022-12-18T14:53:44;52.90;;;24.60;;
37455;SDS011;23316;50.718;7.328;2022-12-18T14:56:17;53.20;;;24.63;;
37455;SDS011;23316;50.718;7.328;2022-12-18T14:58:48;51.10;;;22.85;;
37455;SDS011;23316;50.718;7.328;2022-12-18T15:01:19;53.95;;;24.83;;
37455;SDS011;23316;50.718;7.328;2022-12-18T15:03:51;52.25;;;25.80;;